CheckWX is a tool to help pilots better visualize weather data.  It is not intended as a substitute for an official pre-flight weather briefing.

12:50:51 UTC

KFHB METAR
Fernandina Beach Municipal Airport
Fernandina Beach, Florida, USA
Current

16 mins ago

KFHB 181235Z AUTO 19005KT 10SM CLR 18/18 A3004 RMK AO2 T01820176
Observed
Feb-18 @ 12:35 UTC
Wind
  • 190° at 5 KTS
Visibility
10 SM
Flight Rules
VFR
Cloud Levels
  • Clear skies
Temperature
18°C / 64°F
Dewpoint
18°C / 64°F
Humidity
100%
Altimeter
30.04" Hg
Pressure
1017.32 hPa
Previous

36 mins ago

KFHB 181215Z AUTO 22004KT 7SM CLR 17/17 A3003 RMK AO2 T01730169
Observed
Feb-18 @ 12:15 UTC
Wind
  • 220° at 4 KTS
Visibility
7 SM
Flight Rules
VFR
Cloud Levels
  • Clear skies
Temperature
17°C / 63°F
Dewpoint
17°C / 63°F
Humidity
100%
Altimeter
30.03" Hg
Pressure
1016.92 hPa
Previous

56 mins ago

KFHB 181155Z AUTO 21006KT 10SM CLR 18/17 A3002 RMK AO2 T01760170 10188 20158
Observed
Feb-18 @ 11:55 UTC
Wind
  • 210° at 6 KTS
Visibility
10 SM
Flight Rules
VFR
Cloud Levels
  • Clear skies
Temperature
18°C / 64°F
Dewpoint
17°C / 63°F
Humidity
94%
Altimeter
30.02" Hg
Pressure
1016.62 hPa